createdAt,value
2023-06-17T00:00:39.698Z,15.80
2023-06-17T00:03:28.701Z,15.80
2023-06-17T00:05:58.158Z,15.80
2023-06-17T00:08:27.053Z,15.70
2023-06-17T00:10:56.305Z,15.70
2023-06-17T00:13:26.997Z,15.70
2023-06-17T00:15:58.309Z,15.60
2023-06-17T00:18:27.733Z,15.60
2023-06-17T00:20:59.423Z,15.50
2023-06-17T00:23:28.588Z,15.40
2023-06-17T00:25:57.872Z,15.30
2023-06-17T00:28:28.217Z,15.20
2023-06-17T00:30:58.079Z,15.10
2023-06-17T00:33:27.565Z,15.10
2023-06-17T00:35:56.911Z,15.00
2023-06-17T00:38:25.937Z,15.00
2023-06-17T00:40:55.337Z,14.90
2023-06-17T00:43:24.301Z,14.90
2023-06-17T00:45:55.013Z,14.90
2023-06-17T00:48:25.197Z,14.80
2023-06-17T00:50:54.504Z,14.80
2023-06-17T00:53:23.491Z,14.80
2023-06-17T00:55:52.990Z,14.80
2023-06-17T00:58:21.967Z,14.70
2023-06-17T01:00:51.395Z,14.60
2023-06-17T01:03:24.194Z,14.60
2023-06-17T01:05:55.773Z,14.70
2023-06-17T01:08:30.592Z,14.70
2023-06-17T01:11:02.633Z,14.60
2023-06-17T01:13:32.931Z,14.70
2023-06-17T01:16:03.324Z,14.70
2023-06-17T01:18:34.668Z,14.70
2023-06-17T01:21:05.435Z,14.70
2023-06-17T01:23:36.345Z,14.60
2023-06-17T01:26:08.644Z,14.60
2023-06-17T01:28:39.741Z,14.60
2023-06-17T01:31:09.655Z,14.70
2023-06-17T01:33:39.387Z,14.60
2023-06-17T01:36:12.343Z,14.60
2023-06-17T01:38:44.012Z,14.60
2023-06-17T01:41:18.759Z,14.60
2023-06-17T01:43:47.779Z,14.60
2023-06-17T01:46:17.112Z,14.50
2023-06-17T01:48:46.284Z,14.50
2023-06-17T01:51:15.575Z,14.50
2023-06-17T01:53:45.255Z,14.40
2023-06-17T01:56:16.451Z,14.50
2023-06-17T01:58:45.535Z,14.40
2023-06-17T02:01:14.915Z,14.40
2023-06-17T02:03:44.699Z,14.30
2023-06-17T02:06:14.040Z,14.30
2023-06-17T02:08:43.487Z,14.30
2023-06-17T02:11:12.929Z,14.30
2023-06-17T02:13:44.144Z,14.30
2023-06-17T02:16:13.667Z,14.30
2023-06-17T02:18:43.372Z,14.30
2023-06-17T02:21:12.787Z,14.20
2023-06-17T02:23:41.736Z,14.20
2023-06-17T02:26:11.128Z,14.20
2023-06-17T02:28:40.091Z,14.20
2023-06-17T02:31:11.225Z,14.10
2023-06-17T02:33:40.218Z,14.10
2023-06-17T02:36:09.539Z,14.10
2023-06-17T02:38:38.440Z,14.10
2023-06-17T02:41:07.902Z,14.10
2023-06-17T02:43:36.788Z,14.00
2023-06-17T02:46:06.863Z,14.00
2023-06-17T02:48:37.572Z,14.00
2023-06-17T02:51:06.982Z,14.10
2023-06-17T02:53:36.377Z,14.20
2023-06-17T02:56:06.045Z,14.10
2023-06-17T02:58:35.834Z,14.10
2023-06-17T03:01:06.736Z,14.20
2023-06-17T03:03:38.013Z,14.30
2023-06-17T03:06:08.646Z,14.40
2023-06-17T03:08:39.097Z,14.30
2023-06-17T03:11:08.383Z,14.30
2023-06-17T03:13:37.328Z,14.40
2023-06-17T03:16:07.633Z,14.40
2023-06-17T03:18:38.087Z,14.40
2023-06-17T03:21:08.111Z,14.30
2023-06-17T03:23:37.174Z,14.40
2023-06-17T03:26:06.526Z,14.50
2023-06-17T03:28:35.440Z,14.50
2023-06-17T03:31:05.179Z,14.40
2023-06-17T03:33:34.243Z,14.40
2023-06-17T03:36:05.091Z,14.30
2023-06-17T03:38:33.987Z,14.50
2023-06-17T03:41:03.235Z,14.60
2023-06-17T03:43:32.226Z,14.60
2023-06-17T03:46:01.474Z,14.70
2023-06-17T03:48:30.397Z,14.70
2023-06-17T03:50:59.788Z,14.70
2023-06-17T03:53:30.509Z,14.70
2023-06-17T03:55:59.838Z,14.70
2023-06-17T03:58:29.655Z,14.80
2023-06-17T04:00:58.932Z,14.80
2023-06-17T04:03:28.247Z,14.80
2023-06-17T04:05:57.885Z,14.80
2023-06-17T04:08:26.935Z,14.80
2023-06-17T04:10:57.966Z,14.80
2023-06-17T04:13:26.897Z,14.80
2023-06-17T04:15:56.734Z,15.00
2023-06-17T04:18:26.126Z,15.10
2023-06-17T04:20:58.239Z,15.20
2023-06-17T04:23:27.171Z,15.10
2023-06-17T04:25:58.112Z,15.20
2023-06-17T04:28:27.098Z,15.20
2023-06-17T04:30:56.402Z,15.20
2023-06-17T04:33:26.711Z,15.20
2023-06-17T04:35:57.273Z,15.40
2023-06-17T04:38:26.204Z,15.40
2023-06-17T04:40:56.423Z,15.50
2023-06-17T04:43:29.922Z,15.60
2023-06-17T04:45:59.965Z,15.80
2023-06-17T04:48:29.677Z,15.90
2023-06-17T04:50:59.745Z,16.00
2023-06-17T04:53:29.407Z,16.10
2023-06-17T04:55:58.731Z,16.10
2023-06-17T04:58:29.128Z,16.20
2023-06-17T05:00:58.536Z,16.20
2023-06-17T05:03:27.531Z,16.20
2023-06-17T05:05:56.881Z,16.20
2023-06-17T05:08:25.759Z,16.30
2023-06-17T05:10:55.341Z,16.40
2023-06-17T05:13:24.239Z,16.50
2023-06-17T05:15:55.027Z,16.60
2023-06-17T05:18:23.996Z,16.70
2023-06-17T05:20:53.282Z,16.80
2023-06-17T05:23:22.256Z,16.90
2023-06-17T05:25:51.544Z,17.00
2023-06-17T05:28:20.900Z,17.10
2023-06-17T05:30:50.346Z,17.20
2023-06-17T05:33:20.787Z,17.10
2023-06-17T05:35:50.263Z,17.20
2023-06-17T05:38:19.458Z,17.30
2023-06-17T05:40:48.797Z,17.30
2023-06-17T05:43:17.692Z,17.40
2023-06-17T05:45:47.253Z,17.50
2023-06-17T05:48:16.476Z,17.60
2023-06-17T05:50:47.632Z,17.60
2023-06-17T05:53:16.582Z,17.60
2023-06-17T05:55:46.200Z,17.70
2023-06-17T05:58:15.271Z,17.80
2023-06-17T06:00:46.091Z,17.90
2023-06-17T06:03:15.208Z,17.90
2023-06-17T06:05:44.602Z,17.90
2023-06-17T06:08:15.008Z,18.00
2023-06-17T06:10:44.652Z,17.90
2023-06-17T06:13:13.864Z,18.10
2023-06-17T06:15:43.472Z,18.10
2023-06-17T06:18:12.370Z,18.10
2023-06-17T06:20:41.796Z,18.20
2023-06-17T06:23:11.320Z,18.20
2023-06-17T06:25:43.027Z,18.30
2023-06-17T06:28:11.898Z,18.40
2023-06-17T06:30:41.201Z,18.50
2023-06-17T06:33:10.184Z,18.60
2023-06-17T06:35:39.521Z,18.70
2023-06-17T06:38:08.487Z,18.70
2023-06-17T06:40:37.936Z,18.80
2023-06-17T06:43:08.328Z,18.90
2023-06-17T06:45:37.845Z,19.00
2023-06-17T06:48:07.199Z,19.10
2023-06-17T06:50:36.869Z,19.10
2023-06-17T06:53:05.842Z,19.10
2023-06-17T06:55:35.162Z,19.20
2023-06-17T06:58:04.237Z,19.50
2023-06-17T07:00:34.968Z,19.60
2023-06-17T07:03:04.060Z,19.70
2023-06-17T07:05:33.875Z,19.90
2023-06-17T07:08:03.255Z,19.90
2023-06-17T07:10:32.570Z,19.90
2023-06-17T07:13:01.492Z,20.10
2023-06-17T07:15:31.122Z,20.30
2023-06-17T07:18:01.562Z,20.30
2023-06-17T07:20:31.014Z,20.40
2023-06-17T07:22:59.913Z,20.50
2023-06-17T07:25:29.144Z,20.40
2023-06-17T07:28:01.307Z,20.40
2023-06-17T07:30:30.617Z,20.50
2023-06-17T07:33:01.110Z,20.50
2023-06-17T07:35:32.595Z,20.40
2023-06-17T07:38:01.553Z,20.40
2023-06-17T07:40:31.528Z,20.40
2023-06-17T07:43:03.137Z,20.30
2023-06-17T07:45:32.556Z,20.30
2023-06-17T07:48:03.444Z,20.10
2023-06-17T07:50:32.984Z,20.10
2023-06-17T07:53:02.016Z,20.10
2023-06-17T07:55:31.699Z,20.10
2023-06-17T07:58:00.824Z,20.00
2023-06-17T08:00:30.415Z,19.90
2023-06-17T08:02:59.930Z,19.90
2023-06-17T08:05:31.564Z,19.80
2023-06-17T08:08:00.957Z,19.80
2023-06-17T08:10:30.425Z,19.80
2023-06-17T08:12:59.851Z,19.60
2023-06-17T08:15:30.066Z,19.50
2023-06-17T08:17:59.997Z,19.50
2023-06-17T08:20:31.623Z,19.40
2023-06-17T08:23:00.847Z,19.40
2023-06-17T08:25:30.451Z,19.30
2023-06-17T08:27:59.930Z,19.20
2023-06-17T08:30:29.347Z,19.30
2023-06-17T08:32:59.375Z,19.30
2023-06-17T08:35:29.417Z,19.30
2023-06-17T08:38:00.449Z,19.40
2023-06-17T08:40:31.309Z,19.40
2023-06-17T08:43:02.165Z,19.50
2023-06-17T08:45:32.146Z,19.50
2023-06-17T08:48:01.216Z,19.40
2023-06-17T08:50:31.065Z,19.20
2023-06-17T08:53:01.682Z,19.10
2023-06-17T08:55:31.144Z,19.20
2023-06-17T08:58:00.653Z,19.30
2023-06-17T09:00:30.006Z,19.30
2023-06-17T09:03:01.706Z,19.30
2023-06-17T09:05:31.328Z,19.40
2023-06-17T09:08:01.971Z,19.60
2023-06-17T09:10:31.278Z,19.60
2023-06-17T09:13:01.120Z,19.50
2023-06-17T09:15:30.438Z,19.80
2023-06-17T09:18:01.337Z,19.80
2023-06-17T09:20:34.946Z,19.80
2023-06-17T09:23:05.442Z,19.60
2023-06-17T09:25:36.401Z,19.70
2023-06-17T09:28:15.331Z,19.70
2023-06-17T09:30:46.598Z,19.80
2023-06-17T09:33:22.722Z,19.80
2023-06-17T09:36:00.831Z,19.90
2023-06-17T09:38:31.999Z,20.00
2023-06-17T09:41:01.778Z,20.20
2023-06-17T09:43:30.885Z,20.30
2023-06-17T09:46:02.490Z,20.50
2023-06-17T09:48:34.915Z,20.60
2023-06-17T09:51:06.869Z,20.80
2023-06-17T09:53:38.752Z,20.80
2023-06-17T09:56:12.748Z,21.00
2023-06-17T09:58:44.622Z,21.20
2023-06-17T10:01:15.251Z,21.40
2023-06-17T10:03:44.328Z,21.40
2023-06-17T10:06:14.196Z,21.60
2023-06-17T10:08:45.171Z,21.60
2023-06-17T10:11:15.824Z,21.90
2023-06-17T10:13:44.947Z,21.80
2023-06-17T10:16:16.166Z,22.00
2023-06-17T10:18:46.531Z,22.10
2023-06-17T10:21:16.332Z,22.30
2023-06-17T10:23:47.231Z,22.50
2023-06-17T10:26:16.879Z,22.40
2023-06-17T10:28:47.131Z,22.20
2023-06-17T10:31:27.609Z,22.10
2023-06-17T10:33:58.930Z,22.00
2023-06-17T10:36:28.874Z,22.20
2023-06-17T10:39:00.086Z,22.20
2023-06-17T10:41:54.462Z,22.20
2023-06-17T10:44:31.611Z,22.30
2023-06-17T10:47:00.939Z,22.20
2023-06-17T10:49:38.615Z,22.30
2023-06-17T10:52:13.820Z,22.50
2023-06-17T10:54:51.749Z,22.70
2023-06-17T10:57:34.633Z,22.90
2023-06-17T11:00:08.248Z,22.80
2023-06-17T11:02:38.424Z,22.90
2023-06-17T11:05:08.267Z,23.00
2023-06-17T11:07:38.233Z,23.30
2023-06-17T11:10:09.511Z,23.40
2023-06-17T11:12:40.963Z,23.60
2023-06-17T11:15:10.288Z,23.90
2023-06-17T11:17:40.048Z,24.10
2023-06-17T11:20:09.749Z,24.30
2023-06-17T11:22:39.976Z,24.50
2023-06-17T11:25:11.895Z,24.80
2023-06-17T11:27:42.635Z,25.00
2023-06-17T11:30:12.062Z,25.00
2023-06-17T11:32:42.812Z,24.90
2023-06-17T11:35:12.135Z,25.30
2023-06-17T11:37:41.793Z,25.10
2023-06-17T11:40:16.873Z,25.10
2023-06-17T11:42:47.801Z,25.30
2023-06-17T11:45:17.124Z,25.40
2023-06-17T11:47:46.475Z,25.40
2023-06-17T11:50:15.757Z,25.60
2023-06-17T11:52:54.831Z,25.60
2023-06-17T11:55:30.941Z,25.40
2023-06-17T11:58:00.591Z,25.50
2023-06-17T12:00:30.335Z,25.70
2023-06-17T12:03:00.245Z,25.50
2023-06-17T12:05:29.727Z,25.20
2023-06-17T12:08:01.265Z,25.00
2023-06-17T12:10:31.680Z,25.20
2023-06-17T12:13:00.965Z,25.30
2023-06-17T12:18:11.257Z,25.70
2023-06-17T12:20:40.860Z,26.00
2023-06-17T12:23:10.774Z,26.30
2023-06-17T12:25:41.275Z,26.50
2023-06-17T12:28:10.736Z,26.40
2023-06-17T12:30:40.559Z,26.00
2023-06-17T12:33:09.944Z,25.90
2023-06-17T12:35:38.976Z,25.80
2023-06-17T12:38:09.456Z,25.60
2023-06-17T12:40:39.028Z,25.50
2023-06-17T12:43:10.881Z,25.40
2023-06-17T12:45:42.150Z,25.10
2023-06-17T12:48:12.779Z,24.80
2023-06-17T12:50:42.208Z,24.60
2023-06-17T12:53:11.832Z,24.60
2023-06-17T12:55:40.772Z,24.70
2023-06-17T12:58:11.729Z,24.70
2023-06-17T13:00:42.119Z,24.50
2023-06-17T13:03:12.514Z,24.50
2023-06-17T13:05:43.772Z,24.30
2023-06-17T13:08:13.666Z,24.50
2023-06-17T13:10:42.768Z,24.70
2023-06-17T13:13:13.505Z,24.70
2023-06-17T13:15:42.444Z,24.70
2023-06-17T13:18:14.267Z,24.60
2023-06-17T13:20:43.235Z,24.60
2023-06-17T13:23:12.839Z,24.60
2023-06-17T13:26:01.543Z,24.50
2023-06-17T13:28:50.792Z,24.10
2023-06-17T13:31:31.687Z,24.00
2023-06-17T13:34:16.244Z,23.70
2023-06-17T13:36:49.780Z,23.90
2023-06-17T13:39:24.140Z,24.00
2023-06-17T13:41:55.005Z,23.90
2023-06-17T13:44:29.629Z,23.80
2023-06-17T13:47:00.869Z,23.70
2023-06-17T13:49:32.566Z,23.40
2023-06-17T13:52:03.500Z,23.40
2023-06-17T13:54:35.181Z,23.40
2023-06-17T13:57:06.833Z,23.20
2023-06-17T13:59:42.047Z,23.20
2023-06-17T14:02:14.107Z,23.40
2023-06-17T14:04:47.452Z,23.20
2023-06-17T14:07:19.759Z,23.50
2023-06-17T14:09:52.865Z,23.50
2023-06-17T14:12:24.864Z,23.30
2023-06-17T14:15:00.125Z,23.50
2023-06-17T14:17:32.668Z,23.40
2023-06-17T14:20:04.176Z,23.60
2023-06-17T14:22:34.308Z,23.40
2023-06-17T14:25:04.757Z,23.30
2023-06-17T14:27:37.984Z,23.20
2023-06-17T14:30:12.724Z,23.20
2023-06-17T14:33:03.438Z,23.20
2023-06-17T14:35:41.804Z,23.00
2023-06-17T14:38:12.769Z,22.90
2023-06-17T14:40:42.581Z,22.80
2023-06-17T14:43:12.137Z,22.50
2023-06-17T14:45:43.873Z,22.20
2023-06-17T14:48:13.354Z,22.00
2023-06-17T14:50:43.048Z,21.90
2023-06-17T14:53:12.622Z,21.80
2023-06-17T14:55:43.479Z,21.60
2023-06-17T14:58:12.677Z,21.50
2023-06-17T15:00:45.446Z,21.50
2023-06-17T15:03:15.468Z,21.30
2023-06-17T15:05:46.090Z,21.20
2023-06-17T15:08:15.754Z,21.20
2023-06-17T15:10:45.908Z,21.20
2023-06-17T15:13:15.175Z,21.10
2023-06-17T15:15:47.192Z,20.80
2023-06-17T15:18:16.924Z,20.40
2023-06-17T15:20:46.641Z,19.80
2023-06-17T15:23:16.039Z,19.40
2023-06-17T15:25:46.913Z,19.00
2023-06-17T15:28:17.589Z,18.60
2023-06-17T15:30:50.116Z,18.30
2023-06-17T15:33:19.760Z,18.10
2023-06-17T15:35:49.599Z,18.00
2023-06-17T15:38:18.730Z,18.00
2023-06-17T15:40:48.879Z,17.90
2023-06-17T15:43:18.142Z,17.90
2023-06-17T15:45:49.679Z,17.90
2023-06-17T15:48:18.835Z,17.80
2023-06-17T15:50:48.869Z,17.80
2023-06-17T15:53:18.055Z,17.80
2023-06-17T15:55:48.900Z,17.80
2023-06-17T15:58:18.265Z,17.90
2023-06-17T16:00:50.636Z,17.90
2023-06-17T16:03:38.151Z,17.90
2023-06-17T16:06:08.234Z,18.00
2023-06-17T16:08:37.541Z,18.10
2023-06-17T16:11:07.299Z,18.30
2023-06-17T16:13:36.339Z,18.30
2023-06-17T16:16:07.600Z,18.50
2023-06-17T16:18:36.776Z,18.50
2023-06-17T16:21:06.440Z,18.60
2023-06-17T16:23:35.537Z,18.60
2023-06-17T16:26:05.612Z,18.80
2023-06-17T16:28:35.185Z,19.10
2023-06-17T16:31:07.421Z,19.40
2023-06-17T16:33:39.629Z,19.70
2023-06-17T16:36:09.365Z,20.10
2023-06-17T16:38:38.650Z,20.60
2023-06-17T16:41:08.525Z,21.10
2023-06-17T16:43:37.590Z,21.70
2023-06-17T16:46:07.313Z,22.20
2023-06-17T16:48:36.432Z,22.30
2023-06-17T16:51:08.494Z,22.70
2023-06-17T16:53:37.790Z,23.00
2023-06-17T16:56:07.583Z,23.30
2023-06-17T16:58:37.017Z,23.40
2023-06-17T17:01:06.565Z,23.50
2023-06-17T17:03:36.197Z,23.70
2023-06-17T17:06:05.916Z,24.00
2023-06-17T17:08:36.805Z,23.90
2023-06-17T17:11:06.404Z,24.00
2023-06-17T17:13:48.047Z,24.20
2023-06-17T17:16:19.009Z,23.70
2023-06-17T17:18:48.227Z,23.30
2023-06-17T17:21:17.762Z,22.90
2023-06-17T17:23:48.639Z,22.90
2023-06-17T17:26:18.379Z,22.90
2023-06-17T17:28:47.911Z,23.00
2023-06-17T17:31:17.538Z,22.90
2023-06-17T17:33:46.662Z,22.40
2023-06-17T17:36:17.118Z,22.50
2023-06-17T17:38:47.870Z,22.70
2023-06-17T17:41:17.842Z,22.70
2023-06-17T17:43:46.946Z,22.90
2023-06-17T17:46:16.682Z,23.00
2023-06-17T17:48:45.804Z,23.20
2023-06-17T17:51:15.498Z,23.10
2023-06-17T17:53:44.656Z,23.00
2023-06-17T17:56:15.653Z,22.90
2023-06-17T17:58:44.949Z,22.70
2023-06-17T18:01:14.852Z,22.60
2023-06-17T18:03:44.060Z,22.60
2023-06-17T18:06:14.118Z,22.50
2023-06-17T18:08:43.253Z,22.30
2023-06-17T18:11:12.914Z,21.90
2023-06-17T18:13:43.552Z,21.70
2023-06-17T18:16:13.110Z,21.30
2023-06-17T18:18:42.470Z,21.20
2023-06-17T18:21:12.002Z,20.80
2023-06-17T18:23:41.292Z,20.70
2023-06-17T18:26:11.338Z,20.60
2023-06-17T18:28:40.438Z,20.70
2023-06-17T18:31:11.405Z,20.70
2023-06-17T18:33:40.878Z,20.70
2023-06-17T18:36:10.438Z,20.70
2023-06-17T18:38:40.122Z,20.70
2023-06-17T18:41:10.003Z,20.70
2023-06-17T18:43:39.295Z,20.60
2023-06-17T18:46:10.948Z,20.30
2023-06-17T18:48:40.440Z,20.20
2023-06-17T18:51:11.296Z,20.10
2023-06-17T18:53:42.283Z,20.00
2023-06-17T18:56:11.917Z,19.70
2023-06-17T18:58:41.233Z,19.70
2023-06-17T19:01:12.623Z,19.40
2023-06-17T19:03:41.922Z,19.30
2023-06-17T19:06:11.674Z,19.20
2023-06-17T19:08:40.901Z,19.20
2023-06-17T19:11:14.013Z,19.00
2023-06-17T19:13:43.594Z,18.90
2023-06-17T19:16:14.962Z,18.80
2023-06-17T19:18:44.213Z,18.70
2023-06-17T19:21:14.489Z,18.60
2023-06-17T19:23:43.951Z,18.50
2023-06-17T19:26:13.560Z,18.40
2023-06-17T19:28:42.837Z,18.30
2023-06-17T19:31:14.246Z,18.20
2023-06-17T19:33:43.468Z,18.20
2023-06-17T19:36:13.666Z,18.10
2023-06-17T19:38:43.082Z,18.00
2023-06-17T19:41:13.069Z,17.90
2023-06-17T19:43:42.490Z,17.80
2023-06-17T19:46:12.250Z,17.80
2023-06-17T19:48:42.944Z,17.70
2023-06-17T19:51:12.561Z,17.70
2023-06-17T19:53:41.793Z,17.60
2023-06-17T19:56:11.861Z,17.50
2023-06-17T19:58:41.388Z,17.50
2023-06-17T20:01:11.396Z,17.40
2023-06-17T20:03:40.867Z,17.40
2023-06-17T20:06:14.620Z,17.40
2023-06-17T20:08:43.811Z,17.30
2023-06-17T20:11:14.575Z,17.30
2023-06-17T20:13:43.893Z,17.20
2023-06-17T20:16:14.210Z,17.10
2023-06-17T20:18:43.349Z,17.00
2023-06-17T20:21:14.657Z,17.00
2023-06-17T20:23:44.168Z,16.90
2023-06-17T20:26:14.137Z,16.80
2023-06-17T20:28:43.362Z,16.80
2023-06-17T20:31:14.767Z,16.80
2023-06-17T20:33:45.921Z,16.70
2023-06-17T20:36:17.703Z,16.70
2023-06-17T20:38:47.517Z,16.60
2023-06-17T20:41:17.363Z,16.60
2023-06-17T20:43:46.499Z,16.60
2023-06-17T20:46:16.264Z,16.60
2023-06-17T20:48:45.905Z,16.50
2023-06-17T20:51:17.133Z,16.50
2023-06-17T20:53:46.383Z,16.60
2023-06-17T20:56:16.330Z,16.50
2023-06-17T20:58:45.486Z,16.50
2023-06-17T21:01:15.805Z,16.40
2023-06-17T21:03:44.942Z,16.30
2023-06-17T21:06:15.010Z,16.20
2023-06-17T21:08:45.835Z,16.10
2023-06-17T21:11:15.881Z,16.10
2023-06-17T21:13:45.034Z,16.00
2023-06-17T21:16:14.578Z,15.90
2023-06-17T21:18:43.916Z,15.80
2023-06-17T21:21:14.279Z,15.80
2023-06-17T21:23:45.746Z,15.80
2023-06-17T21:26:19.451Z,15.70
2023-06-17T21:28:49.387Z,15.70
2023-06-17T21:31:51.129Z,15.60
2023-06-17T21:34:20.547Z,15.50
2023-06-17T21:36:50.702Z,15.50
2023-06-17T21:39:21.502Z,15.50
2023-06-17T21:41:50.983Z,15.60
2023-06-17T21:44:20.245Z,15.70
2023-06-17T21:46:49.970Z,15.60
2023-06-17T21:49:19.316Z,15.60
2023-06-17T21:51:50.305Z,15.70
2023-06-17T21:54:21.288Z,15.70
2023-06-17T21:56:51.116Z,15.70
2023-06-17T21:59:20.089Z,15.70
2023-06-17T22:01:49.903Z,15.70
2023-06-17T22:04:19.320Z,15.80
2023-06-17T22:06:48.728Z,15.70
2023-06-17T22:09:17.836Z,15.70
2023-06-17T22:11:48.642Z,15.70
2023-06-17T22:14:17.787Z,15.60
2023-06-17T22:16:47.475Z,15.60
2023-06-17T22:19:16.509Z,15.60
2023-06-17T22:21:46.226Z,15.70
2023-06-17T22:24:15.561Z,15.70
2023-06-17T22:26:45.047Z,15.70
2023-06-17T22:29:15.781Z,15.70
2023-06-17T22:31:45.145Z,15.70
2023-06-17T22:34:14.271Z,15.70
2023-06-17T22:36:43.717Z,15.70
2023-06-17T22:39:12.712Z,15.70
2023-06-17T22:41:42.387Z,15.70
2023-06-17T22:44:11.384Z,15.60
2023-06-17T22:46:42.415Z,15.60
2023-06-17T22:49:11.563Z,15.60
2023-06-17T22:51:41.394Z,15.60
2023-06-17T22:54:10.759Z,15.50
2023-06-17T22:56:40.584Z,15.50
2023-06-17T22:59:09.914Z,15.60
2023-06-17T23:01:39.481Z,15.60
2023-06-17T23:04:10.166Z,15.50
2023-06-17T23:06:40.078Z,15.60
2023-06-17T23:09:10.292Z,15.60
2023-06-17T23:11:40.019Z,15.60
2023-06-17T23:14:10.427Z,15.50
2023-06-17T23:16:40.596Z,15.40
2023-06-17T23:19:11.094Z,15.40
2023-06-17T23:21:41.082Z,15.40
2023-06-17T23:24:10.669Z,15.40
2023-06-17T23:26:41.882Z,15.40
2023-06-17T23:29:11.325Z,15.40
2023-06-17T23:31:41.288Z,15.30
2023-06-17T23:34:13.774Z,15.30
2023-06-17T23:36:45.128Z,15.30
2023-06-17T23:39:14.250Z,15.20
2023-06-17T23:41:44.105Z,15.20
2023-06-17T23:44:13.272Z,15.10
2023-06-17T23:46:43.182Z,15.10
2023-06-17T23:49:17.388Z,15.00
2023-06-17T23:51:47.071Z,15.00
2023-06-17T23:54:16.085Z,15.00
2023-06-17T23:56:45.779Z,15.00
2023-06-17T23:59:14.837Z,15.00
